KECG

Elizabeth City CG Air Station / Rgnl Airport

Elizabeth City, North Carolina, USA
METAR KECG 210354Z 00000KT 10SM CLR 25/25 A3005 RMK AO2 SLP176 T02500250
Observed Flight Rules
Aug-21 @ 03:54 UTC (17 minutes ago) Visual Flight Rules
Visibility Clouds
10 miles
  • Clear skies
Temperatures Readings
Current 25°C / 77°F
Dewpoint 25°C / 77°F
Humidity 100%
Altimeter 30.05" Hg
Pressure 1017.6 hPa
Elevation 11
METAR KECG 210354Z 00000KT 10SM CLR 25/25 A3005 RMK AO2 SLP176 T02500250
Observed Flight Rules
Aug-21 @ 03:54 UTC
(17 minutes ago)
VFR
Clouds
  • Clear skies
Temperature Dewpoint
25°C / 77°F 25°C / 77°F
Humidity Altimeter Pressure
100% 30.05" Hg 1017.6 hPa